createdAt,value
2018-12-01T00:01:24.481Z,29.45
2018-12-01T00:03:52.955Z,29.92
2018-12-01T00:06:21.250Z,40.23
2018-12-01T00:08:49.578Z,38.02
2018-12-01T00:11:17.870Z,33.08
2018-12-01T00:13:46.186Z,31.70
2018-12-01T00:16:14.490Z,34.27
2018-12-01T00:18:42.818Z,33.85
2018-12-01T00:21:11.120Z,35.50
2018-12-01T00:23:39.438Z,30.97
2018-12-01T00:26:07.738Z,28.52
2018-12-01T00:28:36.055Z,22.77
2018-12-01T00:31:04.358Z,25.72
2018-12-01T00:33:32.682Z,32.17
2018-12-01T00:36:01.010Z,28.85
2018-12-01T00:38:29.343Z,29.42
2018-12-01T00:40:57.642Z,29.80
2018-12-01T00:43:25.951Z,30.92
2018-12-01T00:45:54.279Z,33.67
2018-12-01T00:48:22.579Z,31.60
2018-12-01T00:50:50.906Z,32.60
2018-12-01T00:53:19.207Z,30.75
2018-12-01T00:55:47.529Z,28.87
2018-12-01T00:58:15.823Z,27.50
2018-12-01T01:00:44.141Z,31.20
2018-12-01T01:03:12.431Z,26.62
2018-12-01T01:05:40.746Z,33.08
2018-12-01T01:08:09.037Z,38.13
2018-12-01T01:10:37.348Z,39.15
2018-12-01T01:13:05.640Z,48.48
2018-12-01T01:15:33.958Z,44.18
2018-12-01T01:18:02.342Z,46.58
2018-12-01T01:20:30.662Z,52.45
2018-12-01T01:22:58.963Z,53.63
2018-12-01T01:25:27.281Z,50.08
2018-12-01T01:27:55.597Z,49.03
2018-12-01T01:30:24.485Z,52.03
2018-12-01T01:33:29.889Z,51.70
2018-12-01T01:35:58.202Z,37.05
2018-12-01T01:38:26.510Z,48.35
2018-12-01T01:41:00.243Z,44.10
2018-12-01T01:43:28.529Z,42.25
2018-12-01T01:45:56.837Z,40.83
2018-12-01T01:48:25.140Z,37.38
2018-12-01T01:50:53.451Z,38.40
2018-12-01T01:55:44.415Z,42.25
2018-12-01T01:58:12.718Z,35.68
2018-12-01T02:00:41.047Z,33.40
2018-12-01T02:03:09.345Z,34.63
2018-12-01T02:05:37.662Z,33.98
2018-12-01T02:08:05.966Z,29.87
2018-12-01T02:10:34.281Z,26.30
2018-12-01T02:13:02.584Z,29.77
2018-12-01T02:15:30.903Z,28.07
2018-12-01T02:17:59.193Z,28.95
2018-12-01T02:20:27.518Z,36.63
2018-12-01T02:22:55.822Z,32.23
2018-12-01T02:25:24.147Z,31.45
2018-12-01T02:27:52.507Z,37.42
2018-12-01T02:30:21.231Z,35.00
2018-12-01T02:32:49.793Z,32.63
2018-12-01T02:35:20.533Z,34.85
2018-12-01T02:37:48.853Z,38.85
2018-12-01T02:40:17.172Z,32.78
2018-12-01T02:42:45.474Z,36.83
2018-12-01T02:45:25.138Z,35.58
2018-12-01T02:47:53.442Z,42.60
2018-12-01T02:50:24.022Z,38.25
2018-12-01T02:52:54.445Z,42.33
2018-12-01T02:55:22.763Z,35.05
2018-12-01T02:57:51.085Z,35.35
2018-12-01T03:00:19.407Z,33.28
2018-12-01T03:02:47.701Z,28.40
2018-12-01T03:05:16.022Z,29.87
2018-12-01T03:07:44.322Z,35.03
2018-12-01T03:10:14.556Z,27.20
2018-12-01T03:12:42.856Z,32.88
2018-12-01T03:15:12.228Z,31.57
2018-12-01T03:17:40.541Z,32.55
2018-12-01T03:20:12.173Z,36.03
2018-12-01T03:22:40.468Z,44.95
2018-12-01T03:25:09.983Z,28.42
2018-12-01T03:27:38.519Z,37.25
2018-12-01T03:30:10.834Z,33.05
2018-12-01T03:32:39.176Z,36.25
2018-12-01T03:35:12.052Z,32.25
2018-12-01T03:37:41.946Z,29.95
2018-12-01T03:40:10.474Z,41.65
2018-12-01T03:42:38.804Z,35.52
2018-12-01T03:45:09.094Z,33.38
2018-12-01T03:47:37.390Z,33.67
2018-12-01T03:50:06.890Z,36.40
2018-12-01T03:52:35.183Z,35.40
2018-12-01T03:55:10.056Z,40.58
2018-12-01T03:57:38.466Z,37.08
2018-12-01T04:00:07.430Z,35.85
2018-12-01T04:02:35.737Z,35.43
2018-12-01T04:05:04.109Z,42.10
2018-12-01T04:07:32.401Z,39.40
2018-12-01T04:10:00.689Z,44.63
2018-12-01T04:12:29.008Z,46.95
2018-12-01T04:14:57.310Z,47.00
2018-12-01T04:17:25.629Z,56.60
2018-12-01T04:19:53.921Z,53.42
2018-12-01T04:22:22.233Z,45.23
2018-12-01T04:24:50.531Z,60.83
2018-12-01T04:27:18.849Z,46.37
2018-12-01T04:29:47.141Z,54.58
2018-12-01T04:32:15.494Z,50.98
2018-12-01T04:34:43.799Z,60.92
2018-12-01T04:37:12.138Z,48.68
2018-12-01T04:39:40.437Z,52.83
2018-12-01T04:42:08.754Z,53.78
2018-12-01T04:44:37.081Z,49.93
2018-12-01T04:47:05.498Z,50.23
2018-12-01T04:49:33.867Z,51.88
2018-12-01T04:52:02.190Z,51.58
2018-12-01T04:54:30.482Z,48.90
2018-12-01T04:56:58.795Z,49.10
2018-12-01T04:59:27.102Z,53.95
2018-12-01T05:01:55.414Z,44.70
2018-12-01T05:04:23.710Z,43.48
2018-12-01T05:06:52.021Z,45.65
2018-12-01T05:09:20.314Z,36.88
2018-12-01T05:11:48.626Z,40.28
2018-12-01T05:14:16.921Z,34.30
2018-12-01T05:16:45.245Z,42.48
2018-12-01T05:19:13.537Z,41.80
2018-12-01T05:21:41.859Z,33.67
2018-12-01T05:24:10.154Z,41.55
2018-12-01T05:26:38.466Z,40.48
2018-12-01T05:29:06.771Z,39.48
2018-12-01T05:31:35.086Z,35.30
2018-12-01T05:34:03.427Z,29.25
2018-12-01T05:36:31.746Z,42.43
2018-12-01T05:39:00.066Z,38.05
2018-12-01T05:41:28.482Z,34.15
2018-12-01T05:43:56.930Z,40.10
2018-12-01T05:46:25.262Z,42.25
2018-12-01T05:48:53.561Z,41.33
2018-12-01T05:51:21.876Z,42.45
2018-12-01T05:53:50.178Z,32.75
2018-12-01T05:56:18.497Z,40.95
2018-12-01T05:58:46.880Z,39.18
2018-12-01T06:01:15.202Z,36.65
2018-12-01T06:03:43.494Z,44.18
2018-12-01T06:06:11.817Z,49.08
2018-12-01T06:08:40.118Z,58.30
2018-12-01T06:11:08.429Z,78.62
2018-12-01T06:13:36.731Z,68.80
2018-12-01T06:16:05.274Z,45.95
2018-12-01T06:18:33.570Z,45.58
2018-12-01T06:21:01.874Z,33.48
2018-12-01T06:23:30.193Z,44.85
2018-12-01T06:25:58.586Z,39.45
2018-12-01T06:28:26.997Z,38.10
2018-12-01T06:30:55.308Z,34.20
2018-12-01T06:33:23.637Z,38.60
2018-12-01T06:35:51.934Z,40.98
2018-12-01T06:38:20.276Z,39.30
2018-12-01T06:40:48.588Z,34.43
2018-12-01T06:43:16.907Z,43.95
2018-12-01T06:45:45.206Z,37.00
2018-12-01T06:48:13.522Z,65.32
2018-12-01T06:50:41.882Z,51.75
2018-12-01T06:53:10.193Z,40.90
2018-12-01T06:55:38.493Z,40.75
2018-12-01T06:58:06.906Z,43.02
2018-12-01T07:00:35.339Z,48.42
2018-12-01T07:03:03.682Z,49.95
2018-12-01T07:05:33.967Z,44.18
2018-12-01T07:08:02.296Z,41.80
2018-12-01T07:10:30.586Z,32.58
2018-12-01T07:13:01.402Z,38.33
2018-12-01T07:15:34.036Z,35.55
2018-12-01T07:18:02.363Z,34.13
2018-12-01T07:20:30.659Z,30.80
2018-12-01T07:22:58.974Z,29.92
2018-12-01T07:25:27.270Z,30.75
2018-12-01T07:27:55.592Z,28.80
2018-12-01T07:30:23.978Z,27.48
2018-12-01T07:32:52.299Z,29.12
2018-12-01T07:35:20.610Z,32.38
2018-12-01T07:37:48.946Z,35.35
2018-12-01T07:40:18.169Z,52.62
2018-12-01T07:42:46.482Z,44.65
2018-12-01T07:45:15.860Z,45.20
2018-12-01T07:47:44.178Z,45.80
2018-12-01T07:50:15.525Z,33.63
2018-12-01T07:52:45.376Z,39.33
2018-12-01T07:55:13.669Z,36.17
2018-12-01T07:57:41.973Z,35.40
2018-12-01T08:00:14.411Z,40.83
2018-12-01T08:02:43.825Z,47.73
2018-12-01T08:05:12.278Z,53.23
2018-12-01T08:07:40.593Z,44.50
2018-12-01T08:10:11.778Z,42.08
2018-12-01T08:12:40.102Z,39.63
2018-12-01T08:15:13.245Z,40.05
2018-12-01T08:17:41.566Z,48.02
2018-12-01T08:20:10.949Z,31.62
2018-12-01T08:22:39.266Z,35.17
2018-12-01T08:25:12.237Z,34.95
2018-12-01T08:27:40.562Z,36.95
2018-12-01T08:30:12.946Z,48.25
2018-12-01T08:32:41.287Z,46.77
2018-12-01T08:35:09.603Z,47.48
2018-12-01T08:37:37.946Z,49.77
2018-12-01T08:40:09.666Z,49.83
2018-12-01T08:42:38.003Z,44.15
2018-12-01T08:45:09.022Z,41.35
2018-12-01T08:47:37.510Z,47.85
2018-12-01T08:50:10.010Z,45.20
2018-12-01T08:52:38.698Z,35.60
2018-12-01T08:55:08.611Z,45.90
2018-12-01T08:57:36.982Z,35.00
2018-12-01T09:00:10.175Z,37.58
2018-12-01T09:02:38.493Z,45.30
2018-12-01T09:05:07.609Z,40.28
2018-12-01T09:07:35.934Z,32.75
2018-12-01T09:10:05.944Z,36.50
2018-12-01T09:12:34.253Z,45.85
2018-12-01T09:15:02.558Z,36.23
2018-12-01T09:17:30.878Z,53.58
2018-12-01T09:19:59.267Z,40.38
2018-12-01T09:22:27.583Z,41.45
2018-12-01T09:24:55.905Z,32.20
2018-12-01T09:27:24.199Z,28.70
2018-12-01T09:29:52.514Z,24.67
2018-12-01T09:32:20.815Z,24.60
2018-12-01T09:34:49.134Z,22.70
2018-12-01T09:37:17.457Z,21.25
2018-12-01T09:39:45.779Z,18.42
2018-12-01T09:42:14.114Z,19.60
2018-12-01T09:44:42.429Z,20.50
2018-12-01T09:47:10.733Z,18.95
2018-12-01T09:49:39.056Z,26.33
2018-12-01T09:52:07.366Z,22.20
2018-12-01T09:54:35.683Z,20.82
2018-12-01T09:57:03.982Z,24.37
2018-12-01T09:59:32.304Z,25.10
2018-12-01T10:02:00.601Z,17.00
2018-12-01T10:04:28.923Z,16.15
2018-12-01T10:06:57.222Z,16.65
2018-12-01T10:09:25.538Z,21.33
2018-12-01T10:11:54.006Z,32.83
2018-12-01T10:14:22.335Z,17.62
2018-12-01T10:16:50.630Z,20.92
2018-12-01T10:19:18.946Z,16.07
2018-12-01T10:21:47.256Z,23.65
2018-12-01T10:24:15.577Z,19.50
2018-12-01T10:26:43.891Z,22.17
2018-12-01T10:29:12.227Z,25.30
2018-12-01T10:31:40.539Z,19.07
2018-12-01T10:34:08.858Z,23.45
2018-12-01T10:36:37.156Z,17.98
2018-12-01T10:39:08.661Z,16.17
2018-12-01T10:41:37.103Z,17.40
2018-12-01T10:44:05.747Z,18.12
2018-12-01T10:46:34.038Z,18.07
2018-12-01T10:49:02.349Z,20.95
2018-12-01T10:51:30.775Z,20.05
2018-12-01T10:53:59.086Z,17.30
2018-12-01T10:56:27.394Z,17.37
2018-12-01T10:58:55.719Z,18.73
2018-12-01T11:01:28.216Z,20.20
2018-12-01T11:03:56.794Z,19.35
2018-12-01T11:06:25.099Z,28.07
2018-12-01T11:08:53.429Z,23.70
2018-12-01T11:11:21.742Z,21.93
2018-12-01T11:13:50.078Z,17.62
2018-12-01T11:16:18.424Z,22.32
2018-12-01T11:18:46.745Z,22.10
2018-12-01T11:21:15.047Z,15.88
2018-12-01T11:23:43.386Z,17.15
2018-12-01T11:26:11.682Z,18.07
2018-12-01T11:28:40.003Z,20.23
2018-12-01T11:31:08.307Z,16.77
2018-12-01T11:33:36.627Z,22.45
2018-12-01T11:36:05.125Z,17.00
2018-12-01T11:38:33.494Z,15.23
2018-12-01T11:41:01.801Z,24.00
2018-12-01T11:43:30.097Z,25.40
2018-12-01T11:45:58.439Z,20.08
2018-12-01T11:48:26.738Z,20.72
2018-12-01T11:50:55.053Z,24.85
2018-12-01T11:53:23.358Z,24.95
2018-12-01T11:55:51.686Z,21.02
2018-12-01T11:58:19.988Z,25.70
2018-12-01T12:00:48.316Z,17.07
2018-12-01T12:03:16.625Z,17.00
2018-12-01T12:05:46.938Z,22.60
2018-12-01T12:08:19.139Z,22.05
2018-12-01T12:10:47.462Z,25.62
2018-12-01T12:13:15.870Z,11.05
2018-12-01T12:15:44.319Z,19.70
2018-12-01T12:18:12.893Z,24.45
2018-12-01T12:20:41.210Z,23.67
2018-12-01T12:23:09.522Z,19.77
2018-12-01T12:25:37.834Z,16.35
2018-12-01T12:28:06.495Z,24.18
2018-12-01T12:30:34.990Z,27.87
2018-12-01T12:33:03.330Z,23.18
2018-12-01T12:35:31.651Z,24.25
2018-12-01T12:37:59.979Z,28.80
2018-12-01T12:40:28.323Z,25.97
2018-12-01T12:42:58.567Z,22.17
2018-12-01T12:45:26.901Z,24.25
2018-12-01T12:47:55.206Z,26.70
2018-12-01T12:50:23.620Z,21.20
2018-12-01T12:52:53.154Z,20.37
2018-12-01T12:55:22.395Z,23.75
2018-12-01T12:57:50.717Z,27.17
2018-12-01T13:00:20.027Z,25.60
2018-12-01T13:02:51.426Z,27.22
2018-12-01T13:05:21.903Z,25.65
2018-12-01T13:07:50.201Z,18.10
2018-12-01T13:10:19.692Z,24.60
2018-12-01T13:12:47.990Z,18.60
2018-12-01T13:15:17.257Z,25.17
2018-12-01T13:17:46.073Z,21.07
2018-12-01T13:20:19.233Z,20.32
2018-12-01T13:22:48.599Z,17.50
2018-12-01T13:25:16.930Z,23.30
2018-12-01T13:27:48.037Z,23.22
2018-12-01T13:30:18.710Z,23.27
2018-12-01T13:32:47.133Z,19.70
2018-12-01T13:35:15.459Z,22.55
2018-12-01T13:37:43.777Z,17.92
2018-12-01T13:40:14.945Z,21.40
2018-12-01T13:42:43.830Z,24.98
2018-12-01T13:45:13.365Z,19.48
2018-12-01T13:47:41.727Z,20.15
2018-12-01T13:50:12.306Z,19.80
2018-12-01T13:52:40.657Z,23.55
2018-12-01T13:55:09.410Z,23.07
2018-12-01T13:57:37.713Z,20.80
2018-12-01T14:00:22.146Z,22.37
2018-12-01T14:02:50.450Z,26.27
2018-12-01T14:05:18.778Z,26.07
2018-12-01T14:07:47.117Z,25.55
2018-12-01T14:10:21.541Z,23.85
2018-12-01T14:12:51.148Z,19.07
2018-12-01T14:15:21.422Z,21.30
2018-12-01T14:17:49.882Z,27.27
2018-12-01T14:20:18.623Z,25.75
2018-12-01T14:22:47.692Z,27.45
2018-12-01T14:25:16.913Z,29.10
2018-12-01T14:27:54.615Z,25.65
2018-12-01T14:30:22.983Z,22.05
2018-12-01T14:32:51.299Z,21.27
2018-12-01T14:35:36.694Z,25.43
2018-12-01T14:38:07.238Z,25.92
2018-12-01T14:40:35.946Z,23.12
2018-12-01T14:43:04.246Z,26.45
2018-12-01T14:45:32.649Z,25.77
2018-12-01T14:48:00.955Z,21.00
2018-12-01T14:50:29.265Z,25.12
2018-12-01T14:52:57.562Z,25.95
2018-12-01T14:55:25.904Z,22.65
2018-12-01T14:57:54.228Z,23.35
2018-12-01T15:00:24.395Z,23.15
2018-12-01T15:02:53.809Z,27.37
2018-12-01T15:05:22.147Z,33.90
2018-12-01T15:07:50.668Z,24.80
2018-12-01T15:10:20.115Z,29.37
2018-12-01T15:12:48.418Z,28.87
2018-12-01T15:15:20.091Z,26.95
2018-12-01T15:17:48.391Z,28.00
2018-12-01T15:20:18.606Z,32.42
2018-12-01T15:22:48.097Z,29.40
2018-12-01T15:25:17.347Z,32.80
2018-12-01T15:27:45.646Z,30.32
2018-12-01T15:30:16.138Z,33.35
2018-12-01T15:32:46.901Z,31.15
2018-12-01T15:35:15.350Z,29.63
2018-12-01T15:37:44.517Z,43.35
2018-12-01T15:40:19.844Z,36.05
2018-12-01T15:42:48.349Z,39.08
2018-12-01T15:45:17.851Z,41.28
2018-12-01T15:47:46.187Z,36.88
2018-12-01T15:50:19.410Z,35.20
2018-12-01T15:52:51.258Z,44.15
2018-12-01T15:55:19.830Z,30.35
2018-12-01T15:57:48.228Z,23.40
2018-12-01T16:00:18.840Z,29.00
2018-12-01T16:02:47.211Z,34.58
2018-12-01T16:05:17.478Z,27.55
2018-12-01T16:07:46.210Z,25.32
2018-12-01T16:10:15.802Z,29.50
2018-12-01T16:12:44.925Z,29.40
2018-12-01T16:15:15.753Z,30.15
2018-12-01T16:17:44.115Z,37.53
2018-12-01T16:20:13.459Z,37.40
2018-12-01T16:22:41.818Z,38.10
2018-12-01T16:25:13.230Z,38.58
2018-12-01T16:27:42.247Z,39.53
2018-12-01T16:30:14.300Z,27.40
2018-12-01T16:32:42.617Z,34.70
2018-12-01T16:35:10.919Z,27.10
2018-12-01T16:37:39.249Z,32.75
2018-12-01T16:40:16.787Z,37.42
2018-12-01T16:42:45.121Z,34.35
2018-12-01T16:45:14.586Z,26.20
2018-12-01T16:47:42.905Z,29.90
2018-12-01T16:50:12.354Z,31.15
2018-12-01T16:52:41.019Z,40.30
2018-12-01T16:55:11.126Z,34.90
2018-12-01T16:57:39.502Z,47.35
2018-12-01T17:00:14.271Z,37.00
2018-12-01T17:02:43.011Z,33.48
2018-12-01T17:05:12.596Z,44.25
2018-12-01T17:07:40.925Z,37.13
2018-12-01T17:10:11.906Z,94.65
2018-12-01T17:12:40.326Z,29.40
2018-12-01T17:15:12.315Z,33.23
2018-12-01T17:17:40.632Z,34.45
2018-12-01T17:20:12.036Z,36.63
2018-12-01T17:22:40.871Z,27.27
2018-12-01T17:25:11.270Z,32.85
2018-12-01T17:27:39.599Z,28.20
2018-12-01T17:30:17.817Z,40.65
2018-12-01T17:32:46.285Z,33.70
2018-12-01T17:35:16.526Z,39.63
2018-12-01T17:37:46.258Z,39.15
2018-12-01T17:40:19.457Z,39.08
2018-12-01T17:42:49.286Z,33.50
2018-12-01T17:45:17.590Z,34.67
2018-12-01T17:47:45.951Z,37.55
2018-12-01T17:50:15.271Z,36.55
2018-12-01T17:52:46.536Z,31.57
2018-12-01T17:55:15.459Z,40.95
2018-12-01T17:57:44.266Z,47.75
2018-12-01T18:00:16.206Z,41.02
2018-12-01T18:02:44.546Z,36.23
2018-12-01T18:05:14.426Z,45.75
2018-12-01T18:07:42.742Z,53.45
2018-12-01T18:10:13.354Z,37.28
2018-12-01T18:12:42.274Z,28.15
2018-12-01T18:15:12.802Z,36.42
2018-12-01T18:17:41.125Z,38.10
2018-12-01T18:20:19.133Z,37.38
2018-12-01T18:23:03.216Z,51.30
2018-12-01T18:25:33.818Z,61.28
2018-12-01T18:28:02.146Z,72.30
2018-12-01T18:30:33.154Z,58.15
2018-12-01T18:33:19.285Z,63.28
2018-12-01T18:35:47.582Z,70.25
2018-12-01T18:38:15.913Z,60.70
2018-12-01T18:40:44.214Z,73.15
2018-12-01T18:43:12.530Z,65.55
2018-12-01T18:45:42.861Z,71.57
2018-12-01T18:48:11.177Z,62.90
2018-12-01T18:50:39.634Z,70.28
2018-12-01T18:53:09.177Z,61.88
2018-12-01T18:55:38.983Z,61.02
2018-12-01T18:58:08.726Z,62.40
2018-12-01T19:00:42.022Z,57.17
2018-12-01T19:03:10.348Z,65.20
2018-12-01T19:05:38.665Z,63.78
2018-12-01T19:08:06.982Z,66.53
2018-12-01T19:10:35.281Z,50.75
2018-12-01T19:13:03.693Z,63.30
2018-12-01T19:15:31.991Z,57.60
2018-12-01T19:18:00.407Z,53.40
2018-12-01T19:20:28.716Z,59.40
2018-12-01T19:22:57.035Z,70.25
2018-12-01T19:25:25.334Z,56.28
2018-12-01T19:27:54.766Z,66.00
2018-12-01T19:30:23.103Z,51.23
2018-12-01T19:32:55.852Z,53.80
2018-12-01T19:35:24.159Z,57.23
2018-12-01T19:37:53.545Z,49.65
2018-12-01T19:40:33.794Z,42.70
2018-12-01T19:43:02.714Z,45.43
2018-12-01T19:45:31.028Z,44.35
2018-12-01T19:47:59.343Z,45.95
2018-12-01T19:50:33.308Z,31.00
2018-12-01T19:53:01.663Z,37.67
2018-12-01T19:55:30.394Z,32.28
2018-12-01T19:57:59.018Z,27.90
2018-12-01T20:00:28.422Z,31.50
2018-12-01T20:03:00.430Z,17.50
2018-12-01T20:05:28.726Z,14.38
2018-12-01T20:07:57.042Z,23.20
2018-12-01T20:10:30.162Z,12.78
2018-12-01T20:13:01.334Z,12.70
2018-12-01T20:15:33.515Z,13.53
2018-12-01T20:18:03.980Z,12.65
2018-12-01T20:20:32.288Z,14.45
2018-12-01T20:23:00.680Z,15.18
2018-12-01T20:25:28.976Z,13.30
2018-12-01T20:27:57.298Z,27.00
2018-12-01T20:30:25.597Z,14.03
2018-12-01T20:32:53.919Z,11.25
2018-12-01T20:35:26.989Z,18.23
2018-12-01T20:37:59.710Z,11.50
2018-12-01T20:40:28.009Z,11.55
2018-12-01T20:42:56.315Z,9.43
2018-12-01T20:45:24.602Z,9.65
2018-12-01T20:47:52.926Z,12.60
2018-12-01T20:50:21.230Z,13.03
2018-12-01T20:52:49.546Z,12.37
2018-12-01T20:55:21.169Z,10.70
2018-12-01T20:57:53.161Z,15.45
2018-12-01T21:00:21.590Z,12.85
2018-12-01T21:02:50.669Z,13.45
2018-12-01T21:05:21.625Z,14.07
2018-12-01T21:07:50.505Z,12.70
2018-12-01T21:10:22.943Z,16.52
2018-12-01T21:12:52.272Z,10.50
2018-12-01T21:15:21.351Z,11.25
2018-12-01T21:17:49.683Z,12.65
2018-12-01T21:20:18.431Z,13.45
2018-12-01T21:22:48.162Z,11.73
2018-12-01T21:25:22.182Z,14.13
2018-12-01T21:27:50.722Z,15.63
2018-12-01T21:30:22.485Z,15.20
2018-12-01T21:32:56.976Z,15.98
2018-12-01T21:35:25.528Z,16.70
2018-12-01T21:37:55.401Z,14.58
2018-12-01T21:40:24.286Z,15.48
2018-12-01T21:42:52.592Z,16.75
2018-12-01T21:45:21.026Z,13.48
2018-12-01T21:47:49.422Z,17.00
2018-12-01T21:50:19.819Z,15.75
2018-12-01T21:52:50.766Z,13.83
2018-12-01T21:55:19.222Z,20.20
2018-12-01T21:57:48.253Z,15.60
2018-12-01T22:00:20.666Z,15.65
2018-12-01T22:02:50.871Z,18.32
2018-12-01T22:05:20.814Z,18.57
2018-12-01T22:07:49.106Z,14.87
2018-12-01T22:10:17.435Z,17.23
2018-12-01T22:12:45.739Z,21.45
2018-12-01T22:15:17.195Z,21.70
2018-12-01T22:17:45.843Z,21.30
2018-12-01T22:20:16.574Z,22.22
2018-12-01T22:22:44.890Z,19.80
2018-12-01T22:25:13.315Z,22.82
2018-12-01T22:27:41.614Z,21.27
2018-12-01T22:30:18.072Z,19.87
2018-12-01T22:32:48.883Z,22.10
2018-12-01T22:35:18.825Z,21.97
2018-12-01T22:37:47.298Z,23.32
2018-12-01T22:40:17.053Z,20.72
2018-12-01T22:42:45.355Z,21.62
2018-12-01T22:45:13.662Z,26.60
2018-12-01T22:47:41.974Z,23.15
2018-12-01T22:50:19.067Z,28.65
2018-12-01T22:52:47.593Z,25.37
2018-12-01T22:55:18.059Z,36.10
2018-12-01T22:57:49.079Z,27.15
2018-12-01T23:00:19.566Z,26.62
2018-12-01T23:02:47.855Z,27.40
2018-12-01T23:05:17.033Z,27.95
2018-12-01T23:07:45.055Z,23.32
2018-12-01T23:10:14.450Z,25.20
2018-12-01T23:12:43.518Z,25.23
2018-12-01T23:15:12.961Z,25.05
2018-12-01T23:17:42.719Z,25.75
2018-12-01T23:20:16.142Z,20.60
2018-12-01T23:22:44.459Z,32.67
2018-12-01T23:25:12.791Z,23.77
2018-12-01T23:27:41.098Z,25.23
2018-12-01T23:30:18.382Z,21.42
2018-12-01T23:32:48.370Z,24.77
2018-12-01T23:35:16.825Z,23.40
2018-12-01T23:37:45.150Z,23.35
2018-12-01T23:40:13.797Z,24.32
2018-12-01T23:42:42.137Z,23.95
2018-12-01T23:45:17.445Z,34.13
2018-12-01T23:47:46.338Z,20.10
2018-12-01T23:50:22.438Z,26.95
2018-12-01T23:52:52.202Z,19.40
2018-12-01T23:55:20.530Z,20.25
2018-12-01T23:57:48.830Z,24.55
